sensor_id;sensor_type;location;lat;lon;timestamp;noise_LAeq;noise_LA_min;noise_LA_max;noise_LA01;noise_LA95
69610;Laerm;56816;52.192;4.474;2023-02-15T00:00:06;42.38;38.63;45.60;;
69610;Laerm;56816;52.192;4.474;2023-02-15T00:00:18;40.90;36.68;45.12;;
69610;Laerm;56816;52.192;4.474;2023-02-15T00:00:28;45.59;38.85;56.39;;
69610;Laerm;56816;52.192;4.474;2023-02-15T00:00:39;49.65;40.04;57.38;;
69610;Laerm;56816;52.192;4.474;2023-02-15T00:00:49;41.70;36.92;49.81;;
69610;Laerm;56816;52.192;4.474;2023-02-15T00:01:05;39.49;36.33;44.18;;
69610;Laerm;56816;52.192;4.474;2023-02-15T00:01:16;39.48;36.07;47.75;;
69610;Laerm;56816;52.192;4.474;2023-02-15T00:01:27;41.15;38.24;47.19;;
69610;Laerm;56816;52.192;4.474;2023-02-15T00:01:37;43.30;37.06;58.74;;
69610;Laerm;56816;52.192;4.474;2023-02-15T00:01:48;45.73;41.67;50.68;;
69610;Laerm;56816;52.192;4.474;2023-02-15T00:01:58;47.76;37.81;53.72;;
69610;Laerm;56816;52.192;4.474;2023-02-15T00:02:08;39.91;36.96;44.29;;
69610;Laerm;56816;52.192;4.474;2023-02-15T00:02:19;41.86;36.53;45.76;;
69610;Laerm;56816;52.192;4.474;2023-02-15T00:02:30;39.32;36.43;44.43;;
69610;Laerm;56816;52.192;4.474;2023-02-15T00:02:40;39.31;36.07;44.98;;
69610;Laerm;56816;52.192;4.474;2023-02-15T00:02:50;39.07;36.47;44.89;;
69610;Laerm;56816;52.192;4.474;2023-02-15T00:03:00;39.83;37.06;47.76;;
69610;Laerm;56816;52.192;4.474;2023-02-15T00:03:11;41.40;37.99;44.80;;
69610;Laerm;56816;52.192;4.474;2023-02-15T00:03:21;41.03;37.89;46.42;;
69610;Laerm;56816;52.192;4.474;2023-02-15T00:03:31;38.66;36.00;43.21;;
69610;Laerm;56816;52.192;4.474;2023-02-15T00:03:42;39.49;36.84;47.12;;
69610;Laerm;56816;52.192;4.474;2023-02-15T00:03:52;41.92;38.49;46.83;;
69610;Laerm;56816;52.192;4.474;2023-02-15T00:04:03;42.79;39.18;47.73;;
69610;Laerm;56816;52.192;4.474;2023-02-15T00:04:14;41.35;37.38;45.15;;
69610;Laerm;56816;52.192;4.474;2023-02-15T00:04:25;40.55;37.63;43.29;;
69610;Laerm;56816;52.192;4.474;2023-02-15T00:04:55;42.15;37.92;50.84;;
69610;Laerm;56816;52.192;4.474;2023-02-15T00:05:06;41.37;37.26;49.59;;
69610;Laerm;56816;52.192;4.474;2023-02-15T00:05:16;41.44;37.10;50.38;;
69610;Laerm;56816;52.192;4.474;2023-02-15T00:05:26;40.35;37.44;46.57;;
69610;Laerm;56816;52.192;4.474;2023-02-15T00:05:37;41.27;37.84;50.43;;
69610;Laerm;56816;52.192;4.474;2023-02-15T00:05:47;40.69;38.12;44.38;;
69610;Laerm;56816;52.192;4.474;2023-02-15T00:05:57;43.34;39.35;48.26;;
69610;Laerm;56816;52.192;4.474;2023-02-15T00:06:08;55.39;46.05;60.33;;
69610;Laerm;56816;52.192;4.474;2023-02-15T00:06:18;44.12;41.59;52.30;;
69610;Laerm;56816;52.192;4.474;2023-02-15T00:06:28;41.54;39.44;44.13;;
69610;Laerm;56816;52.192;4.474;2023-02-15T00:06:39;41.08;38.71;43.40;;
69610;Laerm;56816;52.192;4.474;2023-02-15T00:06:50;41.80;38.02;46.10;;
69610;Laerm;56816;52.192;4.474;2023-02-15T00:07:00;39.66;36.71;45.46;;
69610;Laerm;56816;52.192;4.474;2023-02-15T00:07:10;39.42;36.50;42.24;;
69610;Laerm;56816;52.192;4.474;2023-02-15T00:07:20;38.29;36.38;39.89;;
69610;Laerm;56816;52.192;4.474;2023-02-15T00:07:31;40.25;37.04;43.18;;
69610;Laerm;56816;52.192;4.474;2023-02-15T00:07:41;38.98;36.61;41.53;;
69610;Laerm;56816;52.192;4.474;2023-02-15T00:07:51;40.85;38.26;43.47;;
69610;Laerm;56816;52.192;4.474;2023-02-15T00:08:02;47.21;38.66;57.19;;
69610;Laerm;56816;52.192;4.474;2023-02-15T00:08:12;48.17;40.05;57.10;;
69610;Laerm;56816;52.192;4.474;2023-02-15T00:08:22;45.65;37.14;54.19;;
69610;Laerm;56816;52.192;4.474;2023-02-15T00:08:33;40.84;37.50;49.52;;
69610;Laerm;56816;52.192;4.474;2023-02-15T00:08:44;41.36;37.71;44.51;;
69610;Laerm;56816;52.192;4.474;2023-02-15T00:08:54;42.83;37.71;54.45;;
69610;Laerm;56816;52.192;4.474;2023-02-15T00:09:05;44.46;38.74;56.20;;
69610;Laerm;56816;52.192;4.474;2023-02-15T00:09:15;41.31;38.77;46.55;;
69610;Laerm;56816;52.192;4.474;2023-02-15T00:09:25;43.48;39.91;46.80;;
69610;Laerm;56816;52.192;4.474;2023-02-15T00:09:35;47.93;43.47;55.62;;
69610;Laerm;56816;52.192;4.474;2023-02-15T00:09:46;50.85;44.05;55.94;;
69610;Laerm;56816;52.192;4.474;2023-02-15T00:09:56;43.12;38.58;50.02;;
69610;Laerm;56816;52.192;4.474;2023-02-15T00:10:07;41.51;36.77;46.41;;
69610;Laerm;56816;52.192;4.474;2023-02-15T00:10:17;38.81;36.31;43.93;;
69610;Laerm;56816;52.192;4.474;2023-02-15T00:10:27;38.54;35.99;43.14;;
69610;Laerm;56816;52.192;4.474;2023-02-15T00:10:38;38.68;36.14;45.18;;
69610;Laerm;56816;52.192;4.474;2023-02-15T00:10:48;40.69;37.10;45.99;;
69610;Laerm;56816;52.192;4.474;2023-02-15T00:11:07;42.05;39.03;52.54;;
69610;Laerm;56816;52.192;4.474;2023-02-15T00:11:18;41.60;37.26;47.92;;
69610;Laerm;56816;52.192;4.474;2023-02-15T00:11:47;47.02;35.83;66.04;;
69610;Laerm;56816;52.192;4.474;2023-02-15T00:12:00;52.13;38.57;67.18;;
69610;Laerm;56816;52.192;4.474;2023-02-15T00:12:10;50.61;36.84;67.56;;
69610;Laerm;56816;52.192;4.474;2023-02-15T00:12:21;41.12;37.06;47.97;;
69610;Laerm;56816;52.192;4.474;2023-02-15T00:12:31;41.05;36.32;48.65;;
69610;Laerm;56816;52.192;4.474;2023-02-15T00:12:41;41.09;35.69;52.80;;
69610;Laerm;56816;52.192;4.474;2023-02-15T00:12:52;39.67;35.37;50.56;;
69610;Laerm;56816;52.192;4.474;2023-02-15T00:13:03;40.33;37.25;44.44;;
69610;Laerm;56816;52.192;4.474;2023-02-15T00:13:13;40.25;37.15;49.55;;
69610;Laerm;56816;52.192;4.474;2023-02-15T00:13:23;43.61;37.85;54.85;;
69610;Laerm;56816;52.192;4.474;2023-02-15T00:13:33;40.75;36.39;49.35;;
69610;Laerm;56816;52.192;4.474;2023-02-15T00:13:45;39.55;35.98;46.62;;
69610;Laerm;56816;52.192;4.474;2023-02-15T00:13:55;41.64;36.81;51.40;;
69610;Laerm;56816;52.192;4.474;2023-02-15T00:14:19;39.98;37.62;46.06;;
69610;Laerm;56816;52.192;4.474;2023-02-15T00:14:30;40.27;36.71;46.42;;
69610;Laerm;56816;52.192;4.474;2023-02-15T00:14:40;40.99;36.96;48.38;;
69610;Laerm;56816;52.192;4.474;2023-02-15T00:14:52;38.64;34.90;42.70;;
69610;Laerm;56816;52.192;4.474;2023-02-15T00:15:02;38.69;35.89;45.16;;
69610;Laerm;56816;52.192;4.474;2023-02-15T00:15:12;39.08;35.93;44.77;;
69610;Laerm;56816;52.192;4.474;2023-02-15T00:15:23;39.09;35.35;48.32;;
69610;Laerm;56816;52.192;4.474;2023-02-15T00:15:33;41.81;36.67;50.92;;
69610;Laerm;56816;52.192;4.474;2023-02-15T00:15:43;41.47;37.70;50.35;;
69610;Laerm;56816;52.192;4.474;2023-02-15T00:15:53;41.57;37.97;48.40;;
69610;Laerm;56816;52.192;4.474;2023-02-15T00:16:04;42.50;37.61;50.50;;
69610;Laerm;56816;52.192;4.474;2023-02-15T00:16:15;42.18;38.66;47.38;;
69610;Laerm;56816;52.192;4.474;2023-02-15T00:16:25;41.21;35.54;48.44;;
69610;Laerm;56816;52.192;4.474;2023-02-15T00:16:36;39.14;36.60;44.20;;
69610;Laerm;56816;52.192;4.474;2023-02-15T00:16:47;43.58;37.94;49.92;;
69610;Laerm;56816;52.192;4.474;2023-02-15T00:16:57;46.75;39.91;52.85;;
69610;Laerm;56816;52.192;4.474;2023-02-15T00:17:09;40.13;36.01;48.91;;
69610;Laerm;56816;52.192;4.474;2023-02-15T00:17:20;39.78;35.40;47.30;;
69610;Laerm;56816;52.192;4.474;2023-02-15T00:17:30;40.49;36.24;52.48;;
69610;Laerm;56816;52.192;4.474;2023-02-15T00:17:40;42.11;37.02;50.40;;
69610;Laerm;56816;52.192;4.474;2023-02-15T00:17:51;41.50;36.45;51.14;;
69610;Laerm;56816;52.192;4.474;2023-02-15T00:18:01;41.25;36.65;51.32;;
69610;Laerm;56816;52.192;4.474;2023-02-15T00:18:11;41.27;36.13;52.58;;
69610;Laerm;56816;52.192;4.474;2023-02-15T00:18:22;40.15;35.16;48.70;;
69610;Laerm;56816;52.192;4.474;2023-02-15T00:18:32;39.31;34.90;47.20;;
69610;Laerm;56816;52.192;4.474;2023-02-15T00:18:42;41.09;36.18;52.30;;
69610;Laerm;56816;52.192;4.474;2023-02-15T00:18:52;39.63;35.58;45.39;;
69610;Laerm;56816;52.192;4.474;2023-02-15T00:19:03;38.77;35.20;50.13;;
69610;Laerm;56816;52.192;4.474;2023-02-15T00:19:14;37.55;34.81;45.49;;
69610;Laerm;56816;52.192;4.474;2023-02-15T00:19:25;39.36;36.43;45.22;;
69610;Laerm;56816;52.192;4.474;2023-02-15T00:19:35;40.26;36.06;48.65;;
69610;Laerm;56816;52.192;4.474;2023-02-15T00:19:46;38.67;35.39;47.78;;
69610;Laerm;56816;52.192;4.474;2023-02-15T00:19:56;40.54;34.68;47.98;;
69610;Laerm;56816;52.192;4.474;2023-02-15T00:20:06;41.39;37.89;48.73;;
69610;Laerm;56816;52.192;4.474;2023-02-15T00:20:17;43.33;38.87;50.54;;
69610;Laerm;56816;52.192;4.474;2023-02-15T00:20:28;40.49;37.43;48.46;;
69610;Laerm;56816;52.192;4.474;2023-02-15T00:20:38;39.86;36.74;44.98;;
69610;Laerm;56816;52.192;4.474;2023-02-15T00:20:48;40.28;37.75;44.54;;
69610;Laerm;56816;52.192;4.474;2023-02-15T00:21:02;46.98;39.08;51.44;;
69610;Laerm;56816;52.192;4.474;2023-02-15T00:21:12;46.19;39.53;52.51;;
69610;Laerm;56816;52.192;4.474;2023-02-15T00:21:22;50.50;40.06;59.87;;
69610;Laerm;56816;52.192;4.474;2023-02-15T00:21:33;40.24;36.27;45.13;;
69610;Laerm;56816;52.192;4.474;2023-02-15T00:21:44;43.23;37.55;52.34;;
69610;Laerm;56816;52.192;4.474;2023-02-15T00:21:54;41.42;36.31;54.87;;
69610;Laerm;56816;52.192;4.474;2023-02-15T00:22:05;40.03;36.76;42.84;;
69610;Laerm;56816;52.192;4.474;2023-02-15T00:22:16;39.49;36.48;45.00;;
69610;Laerm;56816;52.192;4.474;2023-02-15T00:22:26;38.97;36.16;45.57;;
69610;Laerm;56816;52.192;4.474;2023-02-15T00:22:36;41.09;37.11;51.20;;
69610;Laerm;56816;52.192;4.474;2023-02-15T00:22:46;40.93;37.01;47.92;;
69610;Laerm;56816;52.192;4.474;2023-02-15T00:22:57;40.45;37.26;44.97;;
69610;Laerm;56816;52.192;4.474;2023-02-15T00:23:07;46.88;37.29;57.90;;
69610;Laerm;56816;52.192;4.474;2023-02-15T00:23:17;40.82;37.60;45.41;;
69610;Laerm;56816;52.192;4.474;2023-02-15T00:23:27;42.93;37.92;51.08;;
69610;Laerm;56816;52.192;4.474;2023-02-15T00:23:38;39.95;35.37;44.48;;
69610;Laerm;56816;52.192;4.474;2023-02-15T00:23:48;39.18;36.12;47.16;;
69610;Laerm;56816;52.192;4.474;2023-02-15T00:23:59;40.68;36.73;44.77;;
69610;Laerm;56816;52.192;4.474;2023-02-15T00:24:11;39.55;36.40;48.39;;
69610;Laerm;56816;52.192;4.474;2023-02-15T00:24:21;41.85;38.22;44.69;;
69610;Laerm;56816;52.192;4.474;2023-02-15T00:24:32;41.00;36.05;46.52;;
69610;Laerm;56816;52.192;4.474;2023-02-15T00:24:42;39.04;34.81;48.21;;
69610;Laerm;56816;52.192;4.474;2023-02-15T00:24:52;39.60;35.69;45.99;;
69610;Laerm;56816;52.192;4.474;2023-02-15T00:25:02;42.20;37.10;47.18;;
69610;Laerm;56816;52.192;4.474;2023-02-15T00:25:13;43.04;38.98;48.93;;
69610;Laerm;56816;52.192;4.474;2023-02-15T00:25:24;39.66;36.09;42.94;;
69610;Laerm;56816;52.192;4.474;2023-02-15T00:25:34;39.16;36.39;43.28;;
69610;Laerm;56816;52.192;4.474;2023-02-15T00:25:44;39.87;37.03;44.15;;
69610;Laerm;56816;52.192;4.474;2023-02-15T00:26:07;39.81;36.95;42.99;;
69610;Laerm;56816;52.192;4.474;2023-02-15T00:26:18;39.44;34.86;53.96;;
69610;Laerm;56816;52.192;4.474;2023-02-15T00:26:28;40.20;35.41;47.72;;
69610;Laerm;56816;52.192;4.474;2023-02-15T00:26:39;40.07;36.74;49.52;;
69610;Laerm;56816;52.192;4.474;2023-02-15T00:26:50;40.98;35.56;50.92;;
69610;Laerm;56816;52.192;4.474;2023-02-15T00:27:00;40.55;36.10;47.76;;
69610;Laerm;56816;52.192;4.474;2023-02-15T00:27:10;41.37;35.01;52.56;;
69610;Laerm;56816;52.192;4.474;2023-02-15T00:27:21;41.90;35.63;55.97;;
69610;Laerm;56816;52.192;4.474;2023-02-15T00:27:32;51.04;36.15;64.13;;
69610;Laerm;56816;52.192;4.474;2023-02-15T00:27:42;45.23;35.20;56.35;;
69610;Laerm;56816;52.192;4.474;2023-02-15T00:27:53;47.75;37.30;56.53;;
69610;Laerm;56816;52.192;4.474;2023-02-15T00:28:03;41.95;35.78;49.20;;
69610;Laerm;56816;52.192;4.474;2023-02-15T00:28:13;40.46;36.80;46.96;;
69610;Laerm;56816;52.192;4.474;2023-02-15T00:28:23;39.18;36.35;47.26;;
69610;Laerm;56816;52.192;4.474;2023-02-15T00:28:34;39.30;36.00;43.15;;
69610;Laerm;56816;52.192;4.474;2023-02-15T00:28:44;40.49;36.98;46.08;;
69610;Laerm;56816;52.192;4.474;2023-02-15T00:28:54;45.67;36.86;55.45;;
69610;Laerm;56816;52.192;4.474;2023-02-15T00:29:05;50.10;38.80;60.01;;
69610;Laerm;56816;52.192;4.474;2023-02-15T00:29:16;38.52;35.17;45.28;;
69610;Laerm;56816;52.192;4.474;2023-02-15T00:29:26;39.54;34.89;44.90;;
69610;Laerm;56816;52.192;4.474;2023-02-15T00:29:38;40.31;36.38;47.15;;
69610;Laerm;56816;52.192;4.474;2023-02-15T00:29:48;43.41;37.18;52.12;;
69610;Laerm;56816;52.192;4.474;2023-02-15T00:29:58;40.86;35.57;47.90;;
69610;Laerm;56816;52.192;4.474;2023-02-15T00:30:08;41.81;37.19;51.04;;
69610;Laerm;56816;52.192;4.474;2023-02-15T00:30:19;42.21;38.69;47.48;;
69610;Laerm;56816;52.192;4.474;2023-02-15T00:30:29;42.00;37.08;47.30;;
69610;Laerm;56816;52.192;4.474;2023-02-15T00:30:40;38.83;35.26;48.14;;
69610;Laerm;56816;52.192;4.474;2023-02-15T00:30:51;37.60;34.85;42.14;;
69610;Laerm;56816;52.192;4.474;2023-02-15T00:31:14;37.67;34.58;43.75;;
69610;Laerm;56816;52.192;4.474;2023-02-15T00:31:24;38.49;34.88;44.12;;
69610;Laerm;56816;52.192;4.474;2023-02-15T00:31:35;38.22;35.48;41.58;;
69610;Laerm;56816;52.192;4.474;2023-02-15T00:31:45;39.50;36.49;47.46;;
69610;Laerm;56816;52.192;4.474;2023-02-15T00:31:56;39.46;35.53;47.84;;
69610;Laerm;56816;52.192;4.474;2023-02-15T00:32:06;39.36;36.85;45.53;;
69610;Laerm;56816;52.192;4.474;2023-02-15T00:32:17;40.43;35.45;47.71;;
69610;Laerm;56816;52.192;4.474;2023-02-15T00:32:27;44.78;36.12;58.67;;
69610;Laerm;56816;52.192;4.474;2023-02-15T00:32:37;46.05;35.30;59.47;;
69610;Laerm;56816;52.192;4.474;2023-02-15T00:32:47;37.99;35.36;43.10;;
69610;Laerm;56816;52.192;4.474;2023-02-15T00:32:58;38.81;35.46;46.49;;
69610;Laerm;56816;52.192;4.474;2023-02-15T00:33:08;38.03;34.40;45.44;;
69610;Laerm;56816;52.192;4.474;2023-02-15T00:33:18;38.82;34.85;50.06;;
69610;Laerm;56816;52.192;4.474;2023-02-15T00:33:28;39.45;34.86;48.31;;
69610;Laerm;56816;52.192;4.474;2023-02-15T00:33:39;37.03;34.70;43.63;;
69610;Laerm;56816;52.192;4.474;2023-02-15T00:33:49;37.32;34.73;42.08;;
69610;Laerm;56816;52.192;4.474;2023-02-15T00:34:03;37.44;35.38;41.12;;
69610;Laerm;56816;52.192;4.474;2023-02-15T00:34:15;38.98;35.37;47.49;;
69610;Laerm;56816;52.192;4.474;2023-02-15T00:34:26;39.41;36.60;44.70;;
69610;Laerm;56816;52.192;4.474;2023-02-15T00:34:36;41.58;37.89;47.68;;
69610;Laerm;56816;52.192;4.474;2023-02-15T00:34:47;50.73;41.81;66.91;;
69610;Laerm;56816;52.192;4.474;2023-02-15T00:34:57;42.82;37.25;48.64;;
69610;Laerm;56816;52.192;4.474;2023-02-15T00:35:07;40.23;37.40;46.26;;
69610;Laerm;56816;52.192;4.474;2023-02-15T00:35:19;45.62;38.12;50.02;;
69610;Laerm;56816;52.192;4.474;2023-02-15T00:35:29;45.18;38.45;49.30;;
69610;Laerm;56816;52.192;4.474;2023-02-15T00:35:39;42.27;38.79;49.73;;
69610;Laerm;56816;52.192;4.474;2023-02-15T00:35:55;39.91;35.90;47.62;;
69610;Laerm;56816;52.192;4.474;2023-02-15T00:36:06;38.94;35.39;45.33;;
69610;Laerm;56816;52.192;4.474;2023-02-15T00:36:17;39.46;36.46;44.15;;
69610;Laerm;56816;52.192;4.474;2023-02-15T00:36:27;38.96;36.01;44.16;;
69610;Laerm;56816;52.192;4.474;2023-02-15T00:36:37;37.98;35.83;43.63;;
69610;Laerm;56816;52.192;4.474;2023-02-15T00:36:48;38.77;35.10;47.10;;
69610;Laerm;56816;52.192;4.474;2023-02-15T00:36:59;40.51;35.03;50.52;;
69610;Laerm;56816;52.192;4.474;2023-02-15T00:37:09;38.91;35.63;49.49;;
69610;Laerm;56816;52.192;4.474;2023-02-15T00:37:19;39.84;36.06;44.27;;
69610;Laerm;56816;52.192;4.474;2023-02-15T00:37:29;40.79;36.33;46.77;;
69610;Laerm;56816;52.192;4.474;2023-02-15T00:37:40;42.30;36.38;53.74;;
69610;Laerm;56816;52.192;4.474;2023-02-15T00:37:50;41.70;35.82;51.42;;
69610;Laerm;56816;52.192;4.474;2023-02-15T00:38:02;43.29;38.19;51.28;;
69610;Laerm;56816;52.192;4.474;2023-02-15T00:38:12;38.86;35.70;50.10;;
69610;Laerm;56816;52.192;4.474;2023-02-15T00:38:22;39.90;36.05;52.53;;
69610;Laerm;56816;52.192;4.474;2023-02-15T00:38:33;39.53;35.95;50.93;;
69610;Laerm;56816;52.192;4.474;2023-02-15T00:38:43;38.18;35.65;42.60;;
69610;Laerm;56816;52.192;4.474;2023-02-15T00:38:54;39.87;36.89;43.61;;
69610;Laerm;56816;52.192;4.474;2023-02-15T00:39:04;43.16;39.81;49.05;;
69610;Laerm;56816;52.192;4.474;2023-02-15T00:39:15;49.73;44.49;53.18;;
69610;Laerm;56816;52.192;4.474;2023-02-15T00:39:25;44.34;39.95;50.51;;
69610;Laerm;56816;52.192;4.474;2023-02-15T00:39:37;42.03;37.47;53.57;;
69610;Laerm;56816;52.192;4.474;2023-02-15T00:39:47;37.97;35.75;40.59;;
69610;Laerm;56816;52.192;4.474;2023-02-15T00:39:57;38.55;35.48;43.47;;
69610;Laerm;56816;52.192;4.474;2023-02-15T00:40:08;38.12;35.65;42.50;;
69610;Laerm;56816;52.192;4.474;2023-02-15T00:40:18;40.31;38.04;48.15;;
69610;Laerm;56816;52.192;4.474;2023-02-15T00:40:29;39.39;36.44;42.80;;
69610;Laerm;56816;52.192;4.474;2023-02-15T00:40:39;43.84;35.38;51.31;;
69610;Laerm;56816;52.192;4.474;2023-02-15T00:40:56;44.29;37.91;53.88;;
69610;Laerm;56816;52.192;4.474;2023-02-15T00:41:07;40.93;36.80;50.22;;
69610;Laerm;56816;52.192;4.474;2023-02-15T00:41:17;37.85;34.93;44.07;;
69610;Laerm;56816;52.192;4.474;2023-02-15T00:41:27;38.79;35.97;43.12;;
69610;Laerm;56816;52.192;4.474;2023-02-15T00:41:38;38.52;34.87;43.48;;
69610;Laerm;56816;52.192;4.474;2023-02-15T00:41:48;39.56;35.34;46.44;;
69610;Laerm;56816;52.192;4.474;2023-02-15T00:41:59;39.32;36.05;47.05;;
69610;Laerm;56816;52.192;4.474;2023-02-15T00:42:09;38.61;34.78;48.35;;
69610;Laerm;56816;52.192;4.474;2023-02-15T00:42:19;37.62;34.62;43.18;;
69610;Laerm;56816;52.192;4.474;2023-02-15T00:42:29;39.50;36.52;44.18;;
69610;Laerm;56816;52.192;4.474;2023-02-15T00:42:40;38.61;35.85;42.34;;
69610;Laerm;56816;52.192;4.474;2023-02-15T00:42:50;39.91;36.50;44.48;;
69610;Laerm;56816;52.192;4.474;2023-02-15T00:43:00;52.98;39.08;60.92;;
69610;Laerm;56816;52.192;4.474;2023-02-15T00:43:10;39.90;36.15;44.75;;
69610;Laerm;56816;52.192;4.474;2023-02-15T00:43:21;40.98;37.27;49.26;;
69610;Laerm;56816;52.192;4.474;2023-02-15T00:43:32;39.77;34.87;46.13;;
69610;Laerm;56816;52.192;4.474;2023-02-15T00:43:42;37.64;34.39;45.95;;
69610;Laerm;56816;52.192;4.474;2023-02-15T00:43:52;38.78;34.71;49.16;;
69610;Laerm;56816;52.192;4.474;2023-02-15T00:44:03;37.88;34.75;45.91;;
69610;Laerm;56816;52.192;4.474;2023-02-15T00:44:13;39.32;34.88;47.04;;
69610;Laerm;56816;52.192;4.474;2023-02-15T00:44:24;37.97;34.47;45.22;;
69610;Laerm;56816;52.192;4.474;2023-02-15T00:44:34;37.44;34.65;43.98;;
69610;Laerm;56816;52.192;4.474;2023-02-15T00:44:44;36.69;34.04;44.20;;
69610;Laerm;56816;52.192;4.474;2023-02-15T00:44:54;37.60;34.47;43.58;;
69610;Laerm;56816;52.192;4.474;2023-02-15T00:45:05;38.38;34.42;43.04;;
69610;Laerm;56816;52.192;4.474;2023-02-15T00:45:15;39.13;34.80;47.68;;
69610;Laerm;56816;52.192;4.474;2023-02-15T00:45:25;39.26;35.72;44.91;;
69610;Laerm;56816;52.192;4.474;2023-02-15T00:45:36;42.04;39.03;47.21;;
69610;Laerm;56816;52.192;4.474;2023-02-15T00:45:47;41.38;38.13;47.63;;
69610;Laerm;56816;52.192;4.474;2023-02-15T00:45:57;45.81;37.29;58.53;;
69610;Laerm;56816;52.192;4.474;2023-02-15T00:46:08;47.45;37.10;62.08;;
69610;Laerm;56816;52.192;4.474;2023-02-15T00:46:18;41.70;36.29;51.25;;
69610;Laerm;56816;52.192;4.474;2023-02-15T00:46:28;40.28;35.83;50.95;;
69610;Laerm;56816;52.192;4.474;2023-02-15T00:46:39;37.70;35.49;40.85;;
69610;Laerm;56816;52.192;4.474;2023-02-15T00:46:49;38.13;35.16;43.13;;
69610;Laerm;56816;52.192;4.474;2023-02-15T00:47:00;37.92;35.38;43.33;;
69610;Laerm;56816;52.192;4.474;2023-02-15T00:47:10;38.59;35.81;41.65;;
69610;Laerm;56816;52.192;4.474;2023-02-15T00:47:20;41.35;37.56;49.37;;
69610;Laerm;56816;52.192;4.474;2023-02-15T00:47:30;48.35;37.49;59.64;;
69610;Laerm;56816;52.192;4.474;2023-02-15T00:47:41;41.71;36.09;51.62;;
69610;Laerm;56816;52.192;4.474;2023-02-15T00:47:51;37.61;35.26;44.10;;
69610;Laerm;56816;52.192;4.474;2023-02-15T00:48:01;38.06;35.19;41.42;;
69610;Laerm;56816;52.192;4.474;2023-02-15T00:48:11;37.35;34.78;43.08;;
69610;Laerm;56816;52.192;4.474;2023-02-15T00:48:22;37.46;34.32;46.74;;
69610;Laerm;56816;52.192;4.474;2023-02-15T00:48:32;38.69;35.93;46.34;;
69610;Laerm;56816;52.192;4.474;2023-02-15T00:48:43;38.47;35.60;42.84;;
69610;Laerm;56816;52.192;4.474;2023-02-15T00:48:53;37.61;35.37;42.85;;
69610;Laerm;56816;52.192;4.474;2023-02-15T00:49:03;38.18;35.35;43.24;;
69610;Laerm;56816;52.192;4.474;2023-02-15T00:49:14;39.64;35.77;48.37;;
69610;Laerm;56816;52.192;4.474;2023-02-15T00:49:24;39.74;36.69;43.90;;
69610;Laerm;56816;52.192;4.474;2023-02-15T00:49:34;39.24;36.16;42.17;;
69610;Laerm;56816;52.192;4.474;2023-02-15T00:49:45;40.19;37.79;42.96;;
69610;Laerm;56816;52.192;4.474;2023-02-15T00:49:55;41.25;38.21;43.80;;
69610;Laerm;56816;52.192;4.474;2023-02-15T00:50:05;46.42;41.66;50.06;;
69610;Laerm;56816;52.192;4.474;2023-02-15T00:50:16;49.69;47.34;52.23;;
69610;Laerm;56816;52.192;4.474;2023-02-15T00:50:26;46.81;41.70;52.35;;
69610;Laerm;56816;52.192;4.474;2023-02-15T00:50:36;40.63;37.10;43.60;;
69610;Laerm;56816;52.192;4.474;2023-02-15T00:50:48;39.22;36.45;44.99;;
69610;Laerm;56816;52.192;4.474;2023-02-15T00:50:59;39.76;36.93;42.90;;
69610;Laerm;56816;52.192;4.474;2023-02-15T00:51:10;38.44;36.55;42.95;;
69610;Laerm;56816;52.192;4.474;2023-02-15T00:51:21;37.94;35.75;42.47;;
69610;Laerm;56816;52.192;4.474;2023-02-15T00:51:31;38.35;35.62;47.25;;
69610;Laerm;56816;52.192;4.474;2023-02-15T00:51:41;39.90;36.70;46.99;;
69610;Laerm;56816;52.192;4.474;2023-02-15T00:51:52;42.51;39.59;44.72;;
69610;Laerm;56816;52.192;4.474;2023-02-15T00:52:02;45.82;41.32;51.05;;
69610;Laerm;56816;52.192;4.474;2023-02-15T00:52:12;51.35;47.51;55.36;;
69610;Laerm;56816;52.192;4.474;2023-02-15T00:52:22;54.75;52.13;57.45;;
69610;Laerm;56816;52.192;4.474;2023-02-15T00:52:33;53.43;50.12;56.49;;
69610;Laerm;56816;52.192;4.474;2023-02-15T00:52:43;49.60;43.22;53.24;;
69610;Laerm;56816;52.192;4.474;2023-02-15T00:52:53;45.61;41.24;54.99;;
69610;Laerm;56816;52.192;4.474;2023-02-15T00:53:03;42.05;38.77;47.47;;
69610;Laerm;56816;52.192;4.474;2023-02-15T00:53:14;41.81;35.77;48.56;;
69610;Laerm;56816;52.192;4.474;2023-02-15T00:53:25;38.19;35.38;41.37;;
69610;Laerm;56816;52.192;4.474;2023-02-15T00:53:35;37.76;34.89;46.00;;
69610;Laerm;56816;52.192;4.474;2023-02-15T00:53:46;38.04;35.24;49.35;;
69610;Laerm;56816;52.192;4.474;2023-02-15T00:53:56;42.97;38.23;52.12;;
69610;Laerm;56816;52.192;4.474;2023-02-15T00:54:06;39.50;36.18;47.13;;
69610;Laerm;56816;52.192;4.474;2023-02-15T00:54:17;40.86;37.93;44.54;;
69610;Laerm;56816;52.192;4.474;2023-02-15T00:54:27;41.27;37.36;46.06;;
69610;Laerm;56816;52.192;4.474;2023-02-15T00:54:37;41.64;37.91;45.43;;
69610;Laerm;56816;52.192;4.474;2023-02-15T00:54:48;40.10;36.36;43.21;;
69610;Laerm;56816;52.192;4.474;2023-02-15T00:54:58;40.00;37.19;43.65;;
69610;Laerm;56816;52.192;4.474;2023-02-15T00:55:09;42.08;37.13;46.49;;
69610;Laerm;56816;52.192;4.474;2023-02-15T00:55:19;39.88;36.74;42.65;;
69610;Laerm;56816;52.192;4.474;2023-02-15T00:55:29;39.44;36.35;43.33;;
69610;Laerm;56816;52.192;4.474;2023-02-15T00:55:39;40.06;36.43;43.50;;
69610;Laerm;56816;52.192;4.474;2023-02-15T00:55:50;36.71;34.71;38.71;;
69610;Laerm;56816;52.192;4.474;2023-02-15T00:56:00;38.75;34.95;46.39;;
69610;Laerm;56816;52.192;4.474;2023-02-15T00:56:10;38.07;35.26;43.69;;
69610;Laerm;56816;52.192;4.474;2023-02-15T00:56:21;39.88;35.73;45.64;;
69610;Laerm;56816;52.192;4.474;2023-02-15T00:56:31;39.75;36.75;46.67;;
69610;Laerm;56816;52.192;4.474;2023-02-15T00:56:41;42.25;37.05;51.33;;
69610;Laerm;56816;52.192;4.474;2023-02-15T00:56:51;41.79;37.52;49.54;;
69610;Laerm;56816;52.192;4.474;2023-02-15T00:57:02;40.58;37.52;49.26;;
69610;Laerm;56816;52.192;4.474;2023-02-15T00:57:12;38.33;34.93;46.18;;
69610;Laerm;56816;52.192;4.474;2023-02-15T00:57:22;37.72;34.95;43.99;;
69610;Laerm;56816;52.192;4.474;2023-02-15T00:57:33;38.48;35.66;45.62;;
69610;Laerm;56816;52.192;4.474;2023-02-15T00:57:43;39.94;35.84;51.28;;
69610;Laerm;56816;52.192;4.474;2023-02-15T00:57:53;44.49;37.47;55.87;;
69610;Laerm;56816;52.192;4.474;2023-02-15T00:58:03;40.46;35.84;48.38;;
69610;Laerm;56816;52.192;4.474;2023-02-15T00:58:14;37.58;34.78;44.11;;
69610;Laerm;56816;52.192;4.474;2023-02-15T00:58:24;37.10;34.72;40.09;;
69610;Laerm;56816;52.192;4.474;2023-02-15T00:58:34;36.40;34.45;42.50;;
69610;Laerm;56816;52.192;4.474;2023-02-15T00:58:45;38.13;34.35;43.23;;
69610;Laerm;56816;52.192;4.474;2023-02-15T00:58:55;37.24;34.62;45.21;;
69610;Laerm;56816;52.192;4.474;2023-02-15T00:59:05;39.57;34.75;45.23;;
69610;Laerm;56816;52.192;4.474;2023-02-15T00:59:16;37.85;35.97;40.01;;
69610;Laerm;56816;52.192;4.474;2023-02-15T00:59:26;37.21;35.37;41.23;;
69610;Laerm;56816;52.192;4.474;2023-02-15T00:59:36;36.37;33.89;38.66;;
69610;Laerm;56816;52.192;4.474;2023-02-15T00:59:47;36.19;34.13;38.85;;
69610;Laerm;56816;52.192;4.474;2023-02-15T00:59:57;37.50;34.81;40.48;;
69610;Laerm;56816;52.192;4.474;2023-02-15T01:00:07;37.15;34.16;41.74;;
69610;Laerm;56816;52.192;4.474;2023-02-15T01:00:18;39.25;36.91;42.65;;